Dormentes, Brazil
Current Conditions -  °F | °C
As of 4:00 PM on Saturday 25 Oct 2014 (Local Time) from SBPL Reporting Station
Scattered Clouds Scattered Clouds  
Wind Chill: 95°   Ceiling: Unl
Heat Index: 97°   Visibility: 6mi
Dew Point: 64°   Wind: 9mph
Humidity: 36%   Direction: 140°SE
Pressure: 29.85"   Gusts: NA
Location:  8.45°S, 40.77°W
Report Text: SBPL 251900Z 14008KT 9999 SCT030 35/18 Q1011
Loading
Personal Weather Stations






























Interactive Weather Map
Tropical Storm Tracking
New forecast layout! Learn more

10-Day Weather Forecast

Advertisements
Track Severe Weather on mobile